sensor_id;sensor_type;location;lat;lon;timestamp;P1;durP1;ratioP1;P2;durP2;ratioP2
15913;SDS011;8055;51.930;8.840;2023-07-29T00:00:17;2.25;;;1.48;;
15913;SDS011;8055;51.930;8.840;2023-07-29T00:02:44;2.10;;;1.90;;
15913;SDS011;8055;51.930;8.840;2023-07-29T00:05:09;4.93;;;1.73;;
15913;SDS011;8055;51.930;8.840;2023-07-29T00:07:34;1.65;;;1.55;;
15913;SDS011;8055;51.930;8.840;2023-07-29T00:10:00;3.08;;;1.92;;
15913;SDS011;8055;51.930;8.840;2023-07-29T00:12:25;2.17;;;1.88;;
15913;SDS011;8055;51.930;8.840;2023-07-29T00:14:51;2.10;;;1.80;;
15913;SDS011;8055;51.930;8.840;2023-07-29T00:17:16;3.28;;;1.90;;
15913;SDS011;8055;51.930;8.840;2023-07-29T00:19:41;4.00;;;2.00;;
15913;SDS011;8055;51.930;8.840;2023-07-29T00:22:07;2.50;;;2.03;;
15913;SDS011;8055;51.930;8.840;2023-07-29T00:24:33;2.00;;;1.90;;
15913;SDS011;8055;51.930;8.840;2023-07-29T00:26:59;2.40;;;1.98;;
15913;SDS011;8055;51.930;8.840;2023-07-29T00:29:24;4.15;;;2.10;;
15913;SDS011;8055;51.930;8.840;2023-07-29T00:31:49;5.18;;;2.03;;
15913;SDS011;8055;51.930;8.840;2023-07-29T00:34:15;2.03;;;1.85;;
15913;SDS011;8055;51.930;8.840;2023-07-29T00:36:44;3.08;;;2.05;;
15913;SDS011;8055;51.930;8.840;2023-07-29T00:39:10;3.15;;;2.30;;
15913;SDS011;8055;51.930;8.840;2023-07-29T00:41:35;1.98;;;1.80;;
15913;SDS011;8055;51.930;8.840;2023-07-29T00:44:00;4.28;;;2.10;;
15913;SDS011;8055;51.930;8.840;2023-07-29T00:46:26;2.25;;;2.00;;
15913;SDS011;8055;51.930;8.840;2023-07-29T00:48:53;2.47;;;2.05;;
15913;SDS011;8055;51.930;8.840;2023-07-29T00:51:18;4.80;;;1.90;;
15913;SDS011;8055;51.930;8.840;2023-07-29T00:53:44;3.45;;;2.10;;
15913;SDS011;8055;51.930;8.840;2023-07-29T00:56:09;2.83;;;1.80;;
15913;SDS011;8055;51.930;8.840;2023-07-29T00:58:35;3.45;;;1.80;;
15913;SDS011;8055;51.930;8.840;2023-07-29T01:01:00;1.70;;;1.60;;
15913;SDS011;8055;51.930;8.840;2023-07-29T01:03:26;2.13;;;1.90;;
15913;SDS011;8055;51.930;8.840;2023-07-29T01:08:49;3.85;;;2.10;;
15913;SDS011;8055;51.930;8.840;2023-07-29T01:11:32;2.20;;;1.92;;
15913;SDS011;8055;51.930;8.840;2023-07-29T01:14:04;2.10;;;1.90;;
15913;SDS011;8055;51.930;8.840;2023-07-29T01:16:42;3.05;;;1.75;;
15913;SDS011;8055;51.930;8.840;2023-07-29T01:20:02;2.80;;;1.98;;
15913;SDS011;8055;51.930;8.840;2023-07-29T01:22:20;2.10;;;1.80;;
15913;SDS011;8055;51.930;8.840;2023-07-29T01:24:46;1.90;;;1.80;;
15913;SDS011;8055;51.930;8.840;2023-07-29T01:27:11;3.40;;;1.95;;
15913;SDS011;8055;51.930;8.840;2023-07-29T01:29:37;1.60;;;1.50;;
15913;SDS011;8055;51.930;8.840;2023-07-29T01:32:05;3.55;;;1.90;;
15913;SDS011;8055;51.930;8.840;2023-07-29T01:34:37;1.88;;;1.73;;
15913;SDS011;8055;51.930;8.840;2023-07-29T01:37:10;1.80;;;1.70;;
15913;SDS011;8055;51.930;8.840;2023-07-29T01:39:42;2.35;;;1.67;;
15913;SDS011;8055;51.930;8.840;2023-07-29T01:42:10;2.80;;;1.60;;
15913;SDS011;8055;51.930;8.840;2023-07-29T01:44:36;1.52;;;1.42;;
15913;SDS011;8055;51.930;8.840;2023-07-29T01:47:02;3.17;;;1.92;;
15913;SDS011;8055;51.930;8.840;2023-07-29T01:49:27;6.07;;;1.70;;
15913;SDS011;8055;51.930;8.840;2023-07-29T01:51:52;2.10;;;1.65;;
15913;SDS011;8055;51.930;8.840;2023-07-29T01:54:18;4.00;;;1.77;;
15913;SDS011;8055;51.930;8.840;2023-07-29T01:56:43;2.47;;;1.83;;
15913;SDS011;8055;51.930;8.840;2023-07-29T01:59:09;7.20;;;2.10;;
15913;SDS011;8055;51.930;8.840;2023-07-29T02:01:34;1.98;;;1.70;;
15913;SDS011;8055;51.930;8.840;2023-07-29T02:03:59;2.20;;;1.88;;
15913;SDS011;8055;51.930;8.840;2023-07-29T02:06:25;3.05;;;1.95;;
15913;SDS011;8055;51.930;8.840;2023-07-29T02:08:51;2.20;;;1.85;;
15913;SDS011;8055;51.930;8.840;2023-07-29T02:11:18;2.15;;;1.77;;
15913;SDS011;8055;51.930;8.840;2023-07-29T02:13:45;3.45;;;1.77;;
15913;SDS011;8055;51.930;8.840;2023-07-29T02:16:10;2.40;;;2.20;;
15913;SDS011;8055;51.930;8.840;2023-07-29T02:18:36;2.15;;;1.95;;
15913;SDS011;8055;51.930;8.840;2023-07-29T02:21:02;2.25;;;2.05;;
15913;SDS011;8055;51.930;8.840;2023-07-29T02:23:28;4.97;;;2.10;;
15913;SDS011;8055;51.930;8.840;2023-07-29T02:25:53;4.25;;;1.70;;
15913;SDS011;8055;51.930;8.840;2023-07-29T02:28:19;2.33;;;2.00;;
15913;SDS011;8055;51.930;8.840;2023-07-29T02:30:44;3.80;;;1.98;;
15913;SDS011;8055;51.930;8.840;2023-07-29T02:33:10;2.75;;;2.00;;
15913;SDS011;8055;51.930;8.840;2023-07-29T02:35:35;2.88;;;1.80;;
15913;SDS011;8055;51.930;8.840;2023-07-29T02:38:00;4.40;;;1.88;;
15913;SDS011;8055;51.930;8.840;2023-07-29T02:40:26;2.40;;;1.77;;
15913;SDS011;8055;51.930;8.840;2023-07-29T02:42:52;2.30;;;1.60;;
15913;SDS011;8055;51.930;8.840;2023-07-29T02:45:17;1.70;;;1.60;;
15913;SDS011;8055;51.930;8.840;2023-07-29T02:47:43;3.15;;;1.75;;
15913;SDS011;8055;51.930;8.840;2023-07-29T02:50:08;2.22;;;2.03;;
15913;SDS011;8055;51.930;8.840;2023-07-29T02:52:34;2.10;;;1.83;;
15913;SDS011;8055;51.930;8.840;2023-07-29T02:54:59;1.95;;;1.83;;
15913;SDS011;8055;51.930;8.840;2023-07-29T02:57:25;2.20;;;1.95;;
15913;SDS011;8055;51.930;8.840;2023-07-29T02:59:50;2.60;;;2.40;;
15913;SDS011;8055;51.930;8.840;2023-07-29T03:02:15;4.82;;;2.17;;
15913;SDS011;8055;51.930;8.840;2023-07-29T03:04:41;2.60;;;1.90;;
15913;SDS011;8055;51.930;8.840;2023-07-29T03:07:06;2.50;;;2.25;;
15913;SDS011;8055;51.930;8.840;2023-07-29T03:09:32;2.85;;;2.50;;
15913;SDS011;8055;51.930;8.840;2023-07-29T03:11:58;2.47;;;2.22;;
15913;SDS011;8055;51.930;8.840;2023-07-29T03:14:24;2.35;;;2.10;;
15913;SDS011;8055;51.930;8.840;2023-07-29T03:16:50;2.17;;;2.03;;
15913;SDS011;8055;51.930;8.840;2023-07-29T03:19:15;3.03;;;1.98;;
15913;SDS011;8055;51.930;8.840;2023-07-29T03:21:41;2.42;;;2.22;;
15913;SDS011;8055;51.930;8.840;2023-07-29T03:24:06;2.33;;;2.13;;
15913;SDS011;8055;51.930;8.840;2023-07-29T03:26:32;5.05;;;2.38;;
15913;SDS011;8055;51.930;8.840;2023-07-29T03:28:57;2.60;;;2.38;;
15913;SDS011;8055;51.930;8.840;2023-07-29T03:31:23;2.10;;;2.00;;
15913;SDS011;8055;51.930;8.840;2023-07-29T03:33:48;3.38;;;2.30;;
15913;SDS011;8055;51.930;8.840;2023-07-29T03:36:13;2.70;;;2.50;;
15913;SDS011;8055;51.930;8.840;2023-07-29T03:38:39;2.78;;;2.58;;
15913;SDS011;8055;51.930;8.840;2023-07-29T03:41:06;3.22;;;2.33;;
15913;SDS011;8055;51.930;8.840;2023-07-29T03:43:32;3.10;;;2.30;;
15913;SDS011;8055;51.930;8.840;2023-07-29T03:45:58;2.53;;;2.30;;
15913;SDS011;8055;51.930;8.840;2023-07-29T03:48:23;3.30;;;2.42;;
15913;SDS011;8055;51.930;8.840;2023-07-29T03:50:48;2.55;;;2.28;;
15913;SDS011;8055;51.930;8.840;2023-07-29T03:53:14;4.43;;;2.55;;
15913;SDS011;8055;51.930;8.840;2023-07-29T03:55:39;2.53;;;2.30;;
15913;SDS011;8055;51.930;8.840;2023-07-29T03:58:05;3.05;;;2.38;;
15913;SDS011;8055;51.930;8.840;2023-07-29T04:00:30;3.88;;;2.63;;
15913;SDS011;8055;51.930;8.840;2023-07-29T04:02:56;3.30;;;2.20;;
15913;SDS011;8055;51.930;8.840;2023-07-29T04:05:21;3.30;;;2.40;;
15913;SDS011;8055;51.930;8.840;2023-07-29T04:07:46;3.38;;;2.20;;
15913;SDS011;8055;51.930;8.840;2023-07-29T04:10:12;3.28;;;2.25;;
15913;SDS011;8055;51.930;8.840;2023-07-29T04:12:38;4.68;;;1.92;;
15913;SDS011;8055;51.930;8.840;2023-07-29T04:15:03;2.75;;;2.33;;
15913;SDS011;8055;51.930;8.840;2023-07-29T04:17:29;2.97;;;2.67;;
15913;SDS011;8055;51.930;8.840;2023-07-29T04:19:54;2.88;;;2.67;;
15913;SDS011;8055;51.930;8.840;2023-07-29T04:22:20;2.42;;;2.22;;
15913;SDS011;8055;51.930;8.840;2023-07-29T04:24:45;2.60;;;2.40;;
15913;SDS011;8055;51.930;8.840;2023-07-29T04:27:11;3.92;;;2.50;;
15913;SDS011;8055;51.930;8.840;2023-07-29T04:29:36;2.42;;;2.22;;
15913;SDS011;8055;51.930;8.840;2023-07-29T04:32:02;4.57;;;2.20;;
15913;SDS011;8055;51.930;8.840;2023-07-29T04:34:28;2.78;;;2.17;;
15913;SDS011;8055;51.930;8.840;2023-07-29T04:36:53;3.15;;;2.22;;
15913;SDS011;8055;51.930;8.840;2023-07-29T04:39:19;2.85;;;1.95;;
15913;SDS011;8055;51.930;8.840;2023-07-29T04:41:45;3.70;;;2.15;;
15913;SDS011;8055;51.930;8.840;2023-07-29T04:44:10;2.55;;;2.30;;
15913;SDS011;8055;51.930;8.840;2023-07-29T04:46:36;3.33;;;2.35;;
15913;SDS011;8055;51.930;8.840;2023-07-29T04:49:01;4.00;;;2.25;;
15913;SDS011;8055;51.930;8.840;2023-07-29T04:51:27;4.05;;;2.17;;
15913;SDS011;8055;51.930;8.840;2023-07-29T04:53:53;4.05;;;2.40;;
15913;SDS011;8055;51.930;8.840;2023-07-29T04:56:18;3.38;;;2.30;;
15913;SDS011;8055;51.930;8.840;2023-07-29T04:58:44;3.45;;;2.08;;
15913;SDS011;8055;51.930;8.840;2023-07-29T05:01:09;2.70;;;1.88;;
15913;SDS011;8055;51.930;8.840;2023-07-29T05:03:35;2.17;;;1.98;;
15913;SDS011;8055;51.930;8.840;2023-07-29T05:06:01;3.42;;;2.00;;
15913;SDS011;8055;51.930;8.840;2023-07-29T05:08:27;3.42;;;2.20;;
15913;SDS011;8055;51.930;8.840;2023-07-29T05:10:53;2.33;;;2.10;;
15913;SDS011;8055;51.930;8.840;2023-07-29T05:13:22;2.85;;;1.90;;
15913;SDS011;8055;51.930;8.840;2023-07-29T05:15:48;1.83;;;1.73;;
15913;SDS011;8055;51.930;8.840;2023-07-29T05:18:14;2.22;;;2.00;;
15913;SDS011;8055;51.930;8.840;2023-07-29T05:20:40;4.15;;;2.10;;
15913;SDS011;8055;51.930;8.840;2023-07-29T05:23:06;2.35;;;2.15;;
15913;SDS011;8055;51.930;8.840;2023-07-29T05:25:31;3.10;;;1.92;;
15913;SDS011;8055;51.930;8.840;2023-07-29T05:27:57;2.42;;;2.13;;
15913;SDS011;8055;51.930;8.840;2023-07-29T05:30:23;2.67;;;1.70;;
15913;SDS011;8055;51.930;8.840;2023-07-29T05:32:48;4.38;;;2.20;;
15913;SDS011;8055;51.930;8.840;2023-07-29T05:35:14;2.20;;;2.00;;
15913;SDS011;8055;51.930;8.840;2023-07-29T05:37:39;2.20;;;2.00;;
15913;SDS011;8055;51.930;8.840;2023-07-29T05:40:05;1.92;;;1.70;;
15913;SDS011;8055;51.930;8.840;2023-07-29T05:42:32;3.20;;;1.80;;
15913;SDS011;8055;51.930;8.840;2023-07-29T05:44:58;2.22;;;1.90;;
15913;SDS011;8055;51.930;8.840;2023-07-29T05:47:23;2.45;;;1.65;;
15913;SDS011;8055;51.930;8.840;2023-07-29T05:49:48;1.75;;;1.65;;
15913;SDS011;8055;51.930;8.840;2023-07-29T05:52:14;1.70;;;1.60;;
15913;SDS011;8055;51.930;8.840;2023-07-29T05:54:40;3.47;;;1.95;;
15913;SDS011;8055;51.930;8.840;2023-07-29T05:57:07;2.53;;;1.98;;
15913;SDS011;8055;51.930;8.840;2023-07-29T05:59:34;2.28;;;1.65;;
15913;SDS011;8055;51.930;8.840;2023-07-29T06:01:59;3.50;;;1.63;;
15913;SDS011;8055;51.930;8.840;2023-07-29T06:04:24;1.83;;;1.13;;
15913;SDS011;8055;51.930;8.840;2023-07-29T06:06:50;2.92;;;1.80;;
15913;SDS011;8055;51.930;8.840;2023-07-29T06:09:15;2.10;;;1.85;;
15913;SDS011;8055;51.930;8.840;2023-07-29T06:11:40;1.98;;;1.50;;
15913;SDS011;8055;51.930;8.840;2023-07-29T06:14:06;1.50;;;1.40;;
15913;SDS011;8055;51.930;8.840;2023-07-29T06:16:31;1.42;;;1.30;;
15913;SDS011;8055;51.930;8.840;2023-07-29T06:18:56;2.58;;;1.50;;
15913;SDS011;8055;51.930;8.840;2023-07-29T06:21:22;1.60;;;1.50;;
15913;SDS011;8055;51.930;8.840;2023-07-29T06:23:48;4.38;;;1.38;;
15913;SDS011;8055;51.930;8.840;2023-07-29T06:26:13;2.35;;;1.70;;
15913;SDS011;8055;51.930;8.840;2023-07-29T06:28:38;10.05;;;2.10;;
15913;SDS011;8055;51.930;8.840;2023-07-29T06:31:04;5.30;;;1.60;;
15913;SDS011;8055;51.930;8.840;2023-07-29T06:33:29;2.20;;;1.80;;
15913;SDS011;8055;51.930;8.840;2023-07-29T06:35:55;2.03;;;1.70;;
15913;SDS011;8055;51.930;8.840;2023-07-29T06:38:21;2.10;;;1.90;;
15913;SDS011;8055;51.930;8.840;2023-07-29T06:40:47;3.50;;;1.80;;
15913;SDS011;8055;51.930;8.840;2023-07-29T06:43:13;2.95;;;2.00;;
15913;SDS011;8055;51.930;8.840;2023-07-29T06:45:39;2.47;;;2.05;;
15913;SDS011;8055;51.930;8.840;2023-07-29T06:48:04;5.68;;;2.33;;
15913;SDS011;8055;51.930;8.840;2023-07-29T06:50:30;3.08;;;2.33;;
15913;SDS011;8055;51.930;8.840;2023-07-29T06:52:55;4.18;;;2.47;;
15913;SDS011;8055;51.930;8.840;2023-07-29T06:55:20;3.30;;;2.85;;
15913;SDS011;8055;51.930;8.840;2023-07-29T06:57:45;4.53;;;3.15;;
15913;SDS011;8055;51.930;8.840;2023-07-29T07:00:11;3.28;;;2.97;;
15913;SDS011;8055;51.930;8.840;2023-07-29T07:02:36;2.60;;;2.40;;
15913;SDS011;8055;51.930;8.840;2023-07-29T07:05:02;4.70;;;2.67;;
15913;SDS011;8055;51.930;8.840;2023-07-29T07:07:27;3.63;;;2.97;;
15913;SDS011;8055;51.930;8.840;2023-07-29T07:09:52;3.33;;;3.00;;
15913;SDS011;8055;51.930;8.840;2023-07-29T07:12:18;3.95;;;3.20;;
15913;SDS011;8055;51.930;8.840;2023-07-29T07:14:43;5.15;;;2.63;;
15913;SDS011;8055;51.930;8.840;2023-07-29T07:17:08;4.70;;;3.33;;
15913;SDS011;8055;51.930;8.840;2023-07-29T07:19:34;3.72;;;3.42;;
15913;SDS011;8055;51.930;8.840;2023-07-29T07:21:59;4.55;;;4.18;;
15913;SDS011;8055;51.930;8.840;2023-07-29T07:24:25;5.63;;;4.95;;
15913;SDS011;8055;51.930;8.840;2023-07-29T07:26:50;7.47;;;5.68;;
15913;SDS011;8055;51.930;8.840;2023-07-29T07:29:15;5.93;;;5.15;;
15913;SDS011;8055;51.930;8.840;2023-07-29T07:31:41;5.82;;;5.15;;
15913;SDS011;8055;51.930;8.840;2023-07-29T07:34:16;11.43;;;9.00;;
15913;SDS011;8055;51.930;8.840;2023-07-29T07:36:41;10.68;;;9.65;;
15913;SDS011;8055;51.930;8.840;2023-07-29T07:39:07;13.90;;;10.13;;
15913;SDS011;8055;51.930;8.840;2023-07-29T07:41:32;15.32;;;13.70;;
15913;SDS011;8055;51.930;8.840;2023-07-29T07:43:57;15.68;;;13.68;;
15913;SDS011;8055;51.930;8.840;2023-07-29T07:46:23;15.68;;;13.93;;
15913;SDS011;8055;51.930;8.840;2023-07-29T07:48:48;16.10;;;14.40;;
15913;SDS011;8055;51.930;8.840;2023-07-29T07:51:13;18.65;;;15.00;;
15913;SDS011;8055;51.930;8.840;2023-07-29T07:53:39;15.95;;;13.80;;
15913;SDS011;8055;51.930;8.840;2023-07-29T07:56:05;17.73;;;13.25;;
15913;SDS011;8055;51.930;8.840;2023-07-29T07:58:31;20.88;;;14.05;;
15913;SDS011;8055;51.930;8.840;2023-07-29T08:01:06;15.02;;;13.45;;
15913;SDS011;8055;51.930;8.840;2023-07-29T08:03:33;15.63;;;13.93;;
15913;SDS011;8055;51.930;8.840;2023-07-29T08:05:59;15.52;;;13.82;;
15913;SDS011;8055;51.930;8.840;2023-07-29T08:08:26;17.50;;;14.30;;
15913;SDS011;8055;51.930;8.840;2023-07-29T08:10:52;17.30;;;15.38;;
15913;SDS011;8055;51.930;8.840;2023-07-29T08:13:19;19.08;;;15.82;;
15913;SDS011;8055;51.930;8.840;2023-07-29T08:15:49;19.50;;;16.27;;
15913;SDS011;8055;51.930;8.840;2023-07-29T08:20:59;17.27;;;15.45;;
15913;SDS011;8055;51.930;8.840;2023-07-29T08:23:28;20.67;;;15.68;;
15913;SDS011;8055;51.930;8.840;2023-07-29T08:25:59;17.27;;;15.13;;
15913;SDS011;8055;51.930;8.840;2023-07-29T08:28:33;16.77;;;14.85;;
15913;SDS011;8055;51.930;8.840;2023-07-29T08:31:03;18.08;;;14.80;;
15913;SDS011;8055;51.930;8.840;2023-07-29T08:33:29;16.75;;;14.95;;
15913;SDS011;8055;51.930;8.840;2023-07-29T08:35:54;19.02;;;15.80;;
15913;SDS011;8055;51.930;8.840;2023-07-29T08:38:20;17.25;;;15.45;;
15913;SDS011;8055;51.930;8.840;2023-07-29T08:40:49;16.77;;;15.07;;
15913;SDS011;8055;51.930;8.840;2023-07-29T08:43:19;15.10;;;13.50;;
15913;SDS011;8055;51.930;8.840;2023-07-29T08:45:48;16.25;;;14.25;;
15913;SDS011;8055;51.930;8.840;2023-07-29T08:48:16;15.68;;;14.13;;
15913;SDS011;8055;51.930;8.840;2023-07-29T08:50:48;15.35;;;12.70;;
15913;SDS011;8055;51.930;8.840;2023-07-29T08:53:14;15.57;;;12.45;;
15913;SDS011;8055;51.930;8.840;2023-07-29T08:55:40;13.50;;;11.88;;
15913;SDS011;8055;51.930;8.840;2023-07-29T08:58:05;13.00;;;10.40;;
15913;SDS011;8055;51.930;8.840;2023-07-29T09:00:31;11.52;;;10.40;;
15913;SDS011;8055;51.930;8.840;2023-07-29T09:02:57;12.95;;;9.45;;
15913;SDS011;8055;51.930;8.840;2023-07-29T09:05:27;9.77;;;8.88;;
15913;SDS011;8055;51.930;8.840;2023-07-29T09:07:52;10.18;;;9.27;;
15913;SDS011;8055;51.930;8.840;2023-07-29T09:10:24;10.32;;;9.43;;
15913;SDS011;8055;51.930;8.840;2023-07-29T09:12:51;8.82;;;8.13;;
15913;SDS011;8055;51.930;8.840;2023-07-29T09:15:30;8.65;;;7.75;;
15913;SDS011;8055;51.930;8.840;2023-07-29T09:17:57;6.60;;;5.75;;
15913;SDS011;8055;51.930;8.840;2023-07-29T09:20:26;7.00;;;5.47;;
15913;SDS011;8055;51.930;8.840;2023-07-29T09:22:57;5.97;;;5.25;;
15913;SDS011;8055;51.930;8.840;2023-07-29T09:25:27;5.70;;;5.03;;
15913;SDS011;8055;51.930;8.840;2023-07-29T09:28:07;5.00;;;4.50;;
15913;SDS011;8055;51.930;8.840;2023-07-29T09:30:34;4.70;;;4.30;;
15913;SDS011;8055;51.930;8.840;2023-07-29T09:32:59;4.75;;;4.30;;
15913;SDS011;8055;51.930;8.840;2023-07-29T09:35:28;4.97;;;4.30;;
15913;SDS011;8055;51.930;8.840;2023-07-29T09:37:55;4.57;;;3.83;;
15913;SDS011;8055;51.930;8.840;2023-07-29T09:40:20;4.65;;;3.95;;
15913;SDS011;8055;51.930;8.840;2023-07-29T09:42:53;3.95;;;3.60;;
15913;SDS011;8055;51.930;8.840;2023-07-29T09:45:28;5.22;;;3.50;;
15913;SDS011;8055;51.930;8.840;2023-07-29T09:47:54;2.85;;;2.50;;
15913;SDS011;8055;51.930;8.840;2023-07-29T09:50:25;2.25;;;2.05;;
15913;SDS011;8055;51.930;8.840;2023-07-29T09:52:52;3.67;;;1.80;;
15913;SDS011;8055;51.930;8.840;2023-07-29T09:55:19;3.22;;;1.73;;
15913;SDS011;8055;51.930;8.840;2023-07-29T09:57:58;1.50;;;1.40;;
15913;SDS011;8055;51.930;8.840;2023-07-29T10:00:29;1.50;;;1.33;;
15913;SDS011;8055;51.930;8.840;2023-07-29T10:02:55;1.92;;;1.10;;
15913;SDS011;8055;51.930;8.840;2023-07-29T10:05:22;1.00;;;1.00;;
15913;SDS011;8055;51.930;8.840;2023-07-29T10:07:52;1.25;;;1.10;;
15913;SDS011;8055;51.930;8.840;2023-07-29T10:10:18;1.20;;;1.00;;
15913;SDS011;8055;51.930;8.840;2023-07-29T10:12:45;3.22;;;1.00;;
15913;SDS011;8055;51.930;8.840;2023-07-29T10:15:11;2.13;;;1.23;;
15913;SDS011;8055;51.930;8.840;2023-07-29T10:17:37;2.65;;;1.10;;
15913;SDS011;8055;51.930;8.840;2023-07-29T10:20:05;1.30;;;1.20;;
15913;SDS011;8055;51.930;8.840;2023-07-29T10:22:33;1.20;;;1.00;;
15913;SDS011;8055;51.930;8.840;2023-07-29T10:25:05;1.88;;;0.90;;
15913;SDS011;8055;51.930;8.840;2023-07-29T10:30:04;1.48;;;0.85;;
15913;SDS011;8055;51.930;8.840;2023-07-29T10:32:30;1.58;;;0.75;;
15913;SDS011;8055;51.930;8.840;2023-07-29T10:34:56;1.58;;;0.80;;
15913;SDS011;8055;51.930;8.840;2023-07-29T10:37:22;2.85;;;0.90;;
15913;SDS011;8055;51.930;8.840;2023-07-29T10:39:52;1.40;;;1.00;;
15913;SDS011;8055;51.930;8.840;2023-07-29T10:42:19;1.00;;;0.90;;
15913;SDS011;8055;51.930;8.840;2023-07-29T10:44:51;1.00;;;0.80;;
15913;SDS011;8055;51.930;8.840;2023-07-29T10:47:24;1.10;;;0.80;;
15913;SDS011;8055;51.930;8.840;2023-07-29T10:49:51;1.00;;;0.90;;
15913;SDS011;8055;51.930;8.840;2023-07-29T10:54:59;1.67;;;0.90;;
15913;SDS011;8055;51.930;8.840;2023-07-29T10:59:58;1.35;;;0.98;;
15913;SDS011;8055;51.930;8.840;2023-07-29T11:02:42;2.65;;;1.20;;
15913;SDS011;8055;51.930;8.840;2023-07-29T11:05:24;2.15;;;1.00;;
15913;SDS011;8055;51.930;8.840;2023-07-29T11:07:49;2.78;;;0.88;;
15913;SDS011;8055;51.930;8.840;2023-07-29T11:10:15;2.28;;;0.85;;
15913;SDS011;8055;51.930;8.840;2023-07-29T11:12:53;1.08;;;0.85;;
15913;SDS011;8055;51.930;8.840;2023-07-29T11:15:23;1.55;;;0.85;;
15913;SDS011;8055;51.930;8.840;2023-07-29T11:17:53;1.70;;;1.02;;
15913;SDS011;8055;51.930;8.840;2023-07-29T11:20:20;1.58;;;1.30;;
15913;SDS011;8055;51.930;8.840;2023-07-29T11:22:48;1.55;;;1.10;;
15913;SDS011;8055;51.930;8.840;2023-07-29T11:25:14;2.08;;;1.13;;
15913;SDS011;8055;51.930;8.840;2023-07-29T11:27:41;1.10;;;1.00;;
15913;SDS011;8055;51.930;8.840;2023-07-29T11:30:08;1.90;;;1.48;;
15913;SDS011;8055;51.930;8.840;2023-07-29T11:32:36;1.63;;;1.00;;
15913;SDS011;8055;51.930;8.840;2023-07-29T11:35:06;1.30;;;1.20;;
15913;SDS011;8055;51.930;8.840;2023-07-29T11:37:35;1.30;;;1.20;;
15913;SDS011;8055;51.930;8.840;2023-07-29T11:40:01;2.00;;;1.20;;
15913;SDS011;8055;51.930;8.840;2023-07-29T11:42:28;1.90;;;1.08;;
15913;SDS011;8055;51.930;8.840;2023-07-29T11:44:56;3.53;;;1.38;;
15913;SDS011;8055;51.930;8.840;2023-07-29T11:47:22;2.60;;;1.23;;
15913;SDS011;8055;51.930;8.840;2023-07-29T11:49:47;1.60;;;1.30;;
15913;SDS011;8055;51.930;8.840;2023-07-29T11:52:13;2.22;;;1.30;;
15913;SDS011;8055;51.930;8.840;2023-07-29T11:54:39;2.40;;;1.58;;
15913;SDS011;8055;51.930;8.840;2023-07-29T11:57:08;1.42;;;1.30;;
15913;SDS011;8055;51.930;8.840;2023-07-29T11:59:34;1.45;;;1.35;;
15913;SDS011;8055;51.930;8.840;2023-07-29T12:02:01;3.55;;;1.52;;
15913;SDS011;8055;51.930;8.840;2023-07-29T12:04:30;1.55;;;1.27;;
15913;SDS011;8055;51.930;8.840;2023-07-29T12:06:56;2.95;;;1.30;;
15913;SDS011;8055;51.930;8.840;2023-07-29T12:09:22;3.25;;;1.55;;
15913;SDS011;8055;51.930;8.840;2023-07-29T12:11:48;9.13;;;3.65;;
15913;SDS011;8055;51.930;8.840;2023-07-29T12:14:13;2.58;;;2.08;;
15913;SDS011;8055;51.930;8.840;2023-07-29T12:16:44;1.48;;;1.33;;
15913;SDS011;8055;51.930;8.840;2023-07-29T12:19:13;3.17;;;1.80;;
15913;SDS011;8055;51.930;8.840;2023-07-29T12:21:40;1.45;;;1.30;;
15913;SDS011;8055;51.930;8.840;2023-07-29T12:24:07;5.28;;;1.70;;
15913;SDS011;8055;51.930;8.840;2023-07-29T12:26:32;1.83;;;1.50;;
15913;SDS011;8055;51.930;8.840;2023-07-29T12:28:58;1.67;;;1.30;;
15913;SDS011;8055;51.930;8.840;2023-07-29T12:31:32;3.17;;;1.85;;
15913;SDS011;8055;51.930;8.840;2023-07-29T12:33:58;2.40;;;1.67;;
15913;SDS011;8055;51.930;8.840;2023-07-29T12:36:27;1.92;;;1.20;;
15913;SDS011;8055;51.930;8.840;2023-07-29T12:39:05;2.45;;;1.25;;
15913;SDS011;8055;51.930;8.840;2023-07-29T12:41:30;2.65;;;1.38;;
15913;SDS011;8055;51.930;8.840;2023-07-29T12:43:56;2.78;;;1.60;;
15913;SDS011;8055;51.930;8.840;2023-07-29T12:46:21;2.67;;;1.38;;
15913;SDS011;8055;51.930;8.840;2023-07-29T12:48:46;2.10;;;1.27;;
15913;SDS011;8055;51.930;8.840;2023-07-29T12:51:12;1.40;;;1.27;;
15913;SDS011;8055;51.930;8.840;2023-07-29T12:53:37;2.45;;;1.23;;
15913;SDS011;8055;51.930;8.840;2023-07-29T12:56:04;1.50;;;1.17;;
15913;SDS011;8055;51.930;8.840;2023-07-29T12:58:29;4.13;;;1.30;;
15913;SDS011;8055;51.930;8.840;2023-07-29T13:00:54;3.65;;;1.50;;
15913;SDS011;8055;51.930;8.840;2023-07-29T13:03:20;1.58;;;1.40;;
15913;SDS011;8055;51.930;8.840;2023-07-29T13:05:45;59.15;;;5.13;;
15913;SDS011;8055;51.930;8.840;2023-07-29T13:08:10;12.32;;;2.53;;
15913;SDS011;8055;51.930;8.840;2023-07-29T13:10:36;26.77;;;3.50;;
15913;SDS011;8055;51.930;8.840;2023-07-29T13:13:01;20.17;;;2.40;;
15913;SDS011;8055;51.930;8.840;2023-07-29T13:15:26;50.58;;;4.82;;
15913;SDS011;8055;51.930;8.840;2023-07-29T13:17:52;12.18;;;1.90;;
15913;SDS011;8055;51.930;8.840;2023-07-29T13:20:17;3.63;;;1.83;;
15913;SDS011;8055;51.930;8.840;2023-07-29T13:22:43;24.63;;;3.13;;
15913;SDS011;8055;51.930;8.840;2023-07-29T13:25:08;8.32;;;1.85;;
15913;SDS011;8055;51.930;8.840;2023-07-29T13:27:33;19.52;;;2.88;;
15913;SDS011;8055;51.930;8.840;2023-07-29T13:29:59;16.08;;;2.90;;
15913;SDS011;8055;51.930;8.840;2023-07-29T13:32:24;17.20;;;3.03;;
15913;SDS011;8055;51.930;8.840;2023-07-29T13:34:49;30.95;;;3.28;;
15913;SDS011;8055;51.930;8.840;2023-07-29T13:37:15;13.85;;;2.17;;
15913;SDS011;8055;51.930;8.840;2023-07-29T13:39:40;58.13;;;4.95;;
15913;SDS011;8055;51.930;8.840;2023-07-29T13:42:05;49.35;;;6.03;;
15913;SDS011;8055;51.930;8.840;2023-07-29T13:44:31;29.88;;;3.78;;
15913;SDS011;8055;51.930;8.840;2023-07-29T13:46:57;123.47;;;10.77;;
15913;SDS011;8055;51.930;8.840;2023-07-29T13:49:22;15.63;;;3.28;;
15913;SDS011;8055;51.930;8.840;2023-07-29T13:51:47;4.05;;;2.10;;
15913;SDS011;8055;51.930;8.840;2023-07-29T13:54:13;13.63;;;2.75;;
15913;SDS011;8055;51.930;8.840;2023-07-29T13:56:39;10.70;;;2.15;;
15913;SDS011;8055;51.930;8.840;2023-07-29T13:59:04;2.33;;;1.85;;
15913;SDS011;8055;51.930;8.840;2023-07-29T14:01:29;4.18;;;2.30;;
15913;SDS011;8055;51.930;8.840;2023-07-29T14:03:55;3.65;;;2.33;;
15913;SDS011;8055;51.930;8.840;2023-07-29T14:06:20;1.90;;;1.80;;
15913;SDS011;8055;51.930;8.840;2023-07-29T14:08:45;3.67;;;2.13;;
15913;SDS011;8055;51.930;8.840;2023-07-29T14:11:11;2.20;;;2.00;;
15913;SDS011;8055;51.930;8.840;2023-07-29T14:13:36;2.20;;;2.00;;
15913;SDS011;8055;51.930;8.840;2023-07-29T14:16:02;2.15;;;1.95;;
15913;SDS011;8055;51.930;8.840;2023-07-29T14:18:27;2.83;;;2.00;;
15913;SDS011;8055;51.930;8.840;2023-07-29T14:20:53;2.20;;;2.00;;
15913;SDS011;8055;51.930;8.840;2023-07-29T14:23:18;2.63;;;2.15;;
15913;SDS011;8055;51.930;8.840;2023-07-29T14:25:44;3.38;;;2.25;;
15913;SDS011;8055;51.930;8.840;2023-07-29T14:28:09;2.92;;;2.20;;
15913;SDS011;8055;51.930;8.840;2023-07-29T14:30:34;2.25;;;1.98;;
15913;SDS011;8055;51.930;8.840;2023-07-29T14:33:00;2.42;;;1.90;;
15913;SDS011;8055;51.930;8.840;2023-07-29T14:35:26;3.53;;;2.15;;
15913;SDS011;8055;51.930;8.840;2023-07-29T14:37:51;2.28;;;2.08;;
15913;SDS011;8055;51.930;8.840;2023-07-29T14:40:16;2.47;;;2.00;;
15913;SDS011;8055;51.930;8.840;2023-07-29T14:42:42;2.30;;;1.92;;
15913;SDS011;8055;51.930;8.840;2023-07-29T14:45:07;2.35;;;2.00;;
15913;SDS011;8055;51.930;8.840;2023-07-29T14:47:33;2.22;;;1.90;;
15913;SDS011;8055;51.930;8.840;2023-07-29T14:50:00;2.95;;;1.95;;
15913;SDS011;8055;51.930;8.840;2023-07-29T14:52:26;2.20;;;2.00;;
15913;SDS011;8055;51.930;8.840;2023-07-29T14:54:51;2.40;;;1.85;;
15913;SDS011;8055;51.930;8.840;2023-07-29T14:57:16;2.22;;;2.00;;
15913;SDS011;8055;51.930;8.840;2023-07-29T14:59:42;3.00;;;1.90;;
15913;SDS011;8055;51.930;8.840;2023-07-29T15:02:07;2.75;;;2.40;;
15913;SDS011;8055;51.930;8.840;2023-07-29T15:04:33;1.98;;;1.67;;
15913;SDS011;8055;51.930;8.840;2023-07-29T15:06:58;1.90;;;1.75;;